Magnolia, MS (39652)

2:27 AM CST on December 22, 2014 (GMT -0600)
Pinehurst | Change Station
CLOSE
Current Station
Personal Weather Station
Location: McComb, MS
Elevation: 442 ft
Nearby Weather Stations

Elev 442 ft 31.21 °N, 90.50 °W | Updated 12 seconds ago

Fog
Fog
51.9 °F
Feels Like 51.9 °F
N
0.0
Wind Variable Wind from ESE
Gusts 0.0 mph

Today
High -- | Low -- °F
--% Chance of Precip.
Yesterday
High -- | Low -- °F
Precip. -- in
6:56 AM 5:04 PM
New Moon, 0% visible
Pressure 29.88 in
Visibility 0.5 miles
Clouds
Dew Point 51 °F
Humidity 98%
Rainfall 0.00 in
Snow Depth Not available.
UV 0.0 out of 12
Pollen 3.90 out of 12
Air Quality Not available.
Flu Activity Not available.
METAR KMCB 220753Z AUTO 12005KT 1/2SM FG VV002 11/11 A2988 RMK AO2 SLP116 T01110111 $

More Conditions Fewer Conditions

Pressure 29.88 in
Visibility 0.5 miles
Clouds
Dew Point 51 °F
Humidity 98%
Rainfall 0.00 in
Snow Depth Not available.
UV 0.0 out of 12
Pollen 3.90 out of 12
Air Quality Not available.
Flu Activity Not available.
METAR KMCB 220753Z AUTO 12005KT 1/2SM FG VV002 11/11 A2988 RMK AO2 SLP116 T01110111 $

More Conditions Fewer Conditions

Nowcast | as of 1:32 am CST on December 22, 2014

Foggy conditions over the area will maintain visibility restrictions to around 1 mile through the night. A few localized pockets of lower visibilities may occur in some areas through daybreak.

×

10-Day Weather Forecast

Almanac

Astronomy

Dec. 22, 2014 Rise Set
Actual Time
Civil Twilight
Nautical Twilight
Astronomical Twilight
Moon
Length of Visible Light
Length of Day
Tomorrow will be .
, % of the Moon is Illuminated

Today's Extremes

State Highs State Lows

Community

WunderPhotos

Upload Photos

1,779,564 photos uploaded!

WunderBlogs® & News

Nearby

Air Quality

  Air Quality AQ Index Pollutant
Not available.

Snow Depth

Station Depth Elevation

Earthquake Activity

City Distance Mag. Time & Date
Minimum magnitude displayed is 2.5.

Coastal Water Temperatures

Place Temperature

Nearby Weather Stations